createdAt,value
2018-06-23T00:02:16.336Z,1.73
2018-06-23T00:04:46.673Z,2.20
2018-06-23T00:07:16.991Z,2.50
2018-06-23T00:09:48.305Z,2.20
2018-06-23T00:12:18.913Z,1.87
2018-06-23T00:14:49.354Z,1.87
2018-06-23T00:17:19.848Z,1.77
2018-06-23T00:19:50.537Z,2.10
2018-06-23T00:22:21.299Z,1.90
2018-06-23T00:24:51.813Z,2.13
2018-06-23T00:27:22.534Z,1.90
2018-06-23T00:30:06.793Z,2.17
2018-06-23T00:33:02.103Z,1.60
2018-06-23T00:35:32.693Z,1.97
2018-06-23T00:38:04.627Z,1.73
2018-06-23T00:40:35.321Z,1.60
2018-06-23T00:47:26.793Z,1.90
2018-06-23T00:54:11.799Z,1.90
2018-06-23T01:00:53.593Z,2.20
2018-06-23T01:12:05.498Z,1.90
2018-06-23T01:14:56.296Z,2.30
2018-06-23T01:17:31.550Z,2.30
2018-06-23T01:20:02.246Z,2.00
2018-06-23T01:22:32.920Z,2.10
2018-06-23T01:25:03.468Z,2.30
2018-06-23T01:27:33.866Z,2.40
2018-06-23T01:30:05.056Z,1.80
2018-06-23T01:32:35.445Z,1.90
2018-06-23T01:35:06.115Z,1.90
2018-06-23T01:37:36.530Z,1.80
2018-06-23T01:40:07.951Z,2.10
2018-06-23T01:42:38.614Z,1.70
2018-06-23T01:45:09.851Z,1.80
2018-06-23T01:47:40.383Z,1.90
2018-06-23T01:50:10.685Z,1.73
2018-06-23T01:52:41.345Z,1.83
2018-06-23T01:55:15.666Z,1.73
2018-06-23T01:57:46.063Z,2.03
2018-06-23T02:00:20.438Z,1.80
2018-06-23T02:02:50.675Z,1.90
2018-06-23T02:05:20.999Z,1.93
2018-06-23T02:07:51.520Z,1.70
2018-06-23T02:10:21.785Z,1.70
2018-06-23T02:12:52.362Z,1.70
2018-06-23T02:15:26.708Z,2.00
2018-06-23T02:18:01.927Z,1.90
2018-06-23T02:20:36.980Z,1.83
2018-06-23T02:23:12.394Z,2.00
2018-06-23T02:26:05.709Z,1.90
2018-06-23T02:28:42.525Z,1.77
2018-06-23T02:31:18.917Z,1.80
2018-06-23T02:33:54.398Z,1.90
2018-06-23T02:36:24.763Z,1.90
2018-06-23T02:42:18.637Z,2.07
2018-06-23T02:44:49.141Z,1.93
2018-06-23T02:47:19.376Z,1.80
2018-06-23T02:49:49.773Z,2.00
2018-06-23T02:52:20.383Z,1.80
2018-06-23T02:54:51.063Z,1.90
2018-06-23T02:57:21.363Z,1.67
2018-06-23T02:59:51.659Z,1.70
2018-06-23T03:02:23.867Z,1.53
2018-06-23T03:04:54.193Z,1.47
2018-06-23T03:07:24.598Z,1.90
2018-06-23T03:09:54.800Z,1.80
2018-06-23T03:12:25.181Z,1.90
2018-06-23T03:14:55.498Z,1.90
2018-06-23T03:17:25.768Z,1.80
2018-06-23T03:19:56.089Z,2.20
2018-06-23T03:22:26.393Z,1.80
2018-06-23T03:24:56.708Z,1.80
2018-06-23T03:27:26.968Z,1.50
2018-06-23T03:29:57.198Z,1.67
2018-06-23T03:32:27.793Z,1.57
2018-06-23T03:34:57.953Z,1.60
2018-06-23T03:37:29.497Z,1.67
2018-06-23T03:40:02.632Z,1.60
2018-06-23T03:42:33.138Z,1.47
2018-06-23T03:45:03.416Z,1.60
2018-06-23T03:47:54.209Z,1.40
2018-06-23T03:50:25.151Z,1.67
2018-06-23T03:52:55.359Z,1.30
2018-06-23T03:55:25.851Z,1.30
2018-06-23T03:57:56.129Z,1.20
2018-06-23T04:00:26.534Z,1.27
2018-06-23T04:02:56.934Z,1.30
2018-06-23T04:05:27.203Z,1.73
2018-06-23T04:07:57.633Z,1.23
2018-06-23T04:10:27.954Z,1.10
2018-06-23T04:12:58.348Z,1.20
2018-06-23T04:15:28.771Z,1.33
2018-06-23T04:18:05.901Z,1.27
2018-06-23T04:20:38.701Z,1.20
2018-06-23T04:23:10.404Z,1.20
2018-06-23T04:25:43.011Z,0.90
2018-06-23T04:28:13.852Z,0.90
2018-06-23T04:30:44.328Z,1.00
2018-06-23T04:33:14.645Z,0.97
2018-06-23T04:35:44.926Z,1.20
2018-06-23T04:38:15.413Z,0.93
2018-06-23T04:40:45.878Z,0.80
2018-06-23T04:43:16.513Z,0.90
2018-06-23T04:45:46.848Z,1.20
2018-06-23T04:48:19.103Z,1.33
2018-06-23T04:51:00.935Z,1.10
2018-06-23T04:53:38.203Z,1.10
2018-06-23T04:56:09.205Z,1.10
2018-06-23T04:58:41.299Z,1.00
2018-06-23T05:01:12.617Z,0.77
2018-06-23T05:03:43.443Z,0.93
2018-06-23T05:06:28.206Z,0.70
2018-06-23T05:08:58.606Z,1.00
2018-06-23T05:11:28.998Z,1.40
2018-06-23T05:14:03.903Z,1.10
2018-06-23T05:16:47.708Z,1.37
2018-06-23T05:19:18.415Z,1.07
2018-06-23T05:21:52.730Z,1.20
2018-06-23T05:24:23.675Z,1.00
2018-06-23T05:26:54.323Z,0.90
2018-06-23T05:29:24.683Z,0.83
2018-06-23T05:31:55.263Z,0.90
2018-06-23T05:34:25.933Z,1.00
2018-06-23T05:36:56.235Z,0.97
2018-06-23T05:39:35.018Z,1.00
2018-06-23T05:42:08.805Z,1.50
2018-06-23T05:44:41.764Z,1.10
2018-06-23T05:47:29.505Z,1.00
2018-06-23T05:50:00.051Z,1.00
2018-06-23T05:52:30.515Z,1.17
2018-06-23T05:55:01.219Z,0.93
2018-06-23T05:57:31.585Z,0.80
2018-06-23T06:00:02.060Z,1.10
2018-06-23T06:02:32.365Z,0.97
2018-06-23T06:05:02.998Z,1.10
2018-06-23T06:07:33.404Z,1.17
2018-06-23T06:10:03.900Z,1.20
2018-06-23T06:12:35.305Z,1.37
2018-06-23T06:15:08.645Z,1.20
2018-06-23T06:17:40.360Z,1.13
2018-06-23T06:20:15.808Z,0.90
2018-06-23T06:22:49.021Z,1.10
2018-06-23T06:25:23.368Z,0.80
2018-06-23T06:27:54.144Z,0.90
2018-06-23T06:30:27.806Z,1.10
2018-06-23T06:33:09.556Z,1.33
2018-06-23T06:35:40.935Z,1.30
2018-06-23T06:38:12.543Z,1.03
2018-06-23T06:40:43.201Z,0.90
2018-06-23T06:43:13.761Z,1.07
2018-06-23T06:45:44.246Z,0.80
2018-06-23T06:48:14.590Z,1.00
2018-06-23T06:50:46.058Z,1.00
2018-06-23T06:53:16.721Z,1.07
2018-06-23T06:55:47.360Z,1.20
2018-06-23T06:58:17.916Z,1.10
2018-06-23T07:00:48.411Z,1.10
2018-06-23T07:03:19.885Z,0.90
2018-06-23T07:05:50.539Z,0.90
2018-06-23T07:08:20.793Z,1.10
2018-06-23T07:10:51.073Z,1.07
2018-06-23T07:13:21.385Z,1.10
2018-06-23T07:15:51.718Z,0.90
2018-06-23T07:18:22.049Z,1.07
2018-06-23T07:20:52.484Z,1.03
2018-06-23T07:23:22.678Z,1.30
2018-06-23T07:25:53.045Z,0.97
2018-06-23T07:28:23.712Z,1.47
2018-06-23T07:30:53.940Z,1.17
2018-06-23T07:33:24.196Z,1.03
2018-06-23T07:35:58.538Z,0.80
2018-06-23T07:38:28.793Z,1.00
2018-06-23T07:41:02.445Z,1.10
2018-06-23T07:44:06.200Z,0.70
2018-06-23T07:46:36.757Z,1.00
2018-06-23T07:49:07.790Z,0.90
2018-06-23T07:51:38.051Z,1.10
2018-06-23T07:54:08.393Z,0.90
2018-06-23T07:56:43.514Z,0.80
2018-06-23T07:59:15.311Z,1.20
2018-06-23T08:01:47.699Z,1.27
2018-06-23T08:04:17.870Z,0.93
2018-06-23T08:06:48.181Z,0.93
2018-06-23T08:09:19.818Z,1.00
2018-06-23T08:19:25.516Z,0.70
2018-06-23T08:22:45.737Z,0.70
2018-06-23T08:29:47.319Z,1.23
2018-06-23T08:44:28.121Z,0.80
2018-06-23T08:46:58.755Z,0.80
2018-06-23T08:49:30.564Z,1.13
2018-06-23T08:52:01.009Z,0.70
2018-06-23T08:54:31.624Z,0.90
2018-06-23T08:57:03.168Z,1.03
2018-06-23T08:59:33.545Z,1.00
2018-06-23T09:02:03.880Z,0.77
2018-06-23T09:04:34.417Z,0.70
2018-06-23T09:07:04.687Z,0.70
2018-06-23T09:09:35.015Z,0.80
2018-06-23T09:12:06.213Z,0.80
2018-06-23T09:14:36.433Z,0.80
2018-06-23T09:17:06.832Z,1.10
2018-06-23T09:19:37.494Z,0.73
2018-06-23T09:22:08.098Z,0.87
2018-06-23T09:24:38.613Z,0.70
2018-06-23T09:27:09.053Z,1.00
2018-06-23T09:29:39.699Z,0.97
2018-06-23T09:32:10.097Z,0.87
2018-06-23T09:34:40.867Z,0.87
2018-06-23T09:40:11.046Z,0.87
2018-06-23T09:42:42.062Z,0.80
2018-06-23T09:45:12.545Z,1.00
2018-06-23T09:47:45.302Z,0.80
2018-06-23T09:50:28.266Z,0.90
2018-06-23T09:52:59.185Z,0.70
2018-06-23T09:55:29.981Z,0.60
2018-06-23T10:05:36.916Z,0.63
2018-06-23T10:08:07.756Z,0.60
2018-06-23T11:17:21.388Z,0.90
2018-06-23T11:19:51.802Z,0.90
2018-06-23T11:22:22.404Z,1.00
2018-06-23T11:24:55.491Z,0.70
2018-06-23T11:27:25.771Z,0.80
2018-06-23T11:29:55.935Z,0.57
2018-06-23T11:32:26.405Z,0.97
2018-06-23T11:34:57.309Z,1.10
2018-06-23T11:37:27.706Z,1.20
2018-06-23T11:39:57.935Z,0.97
2018-06-23T11:42:29.203Z,0.93
2018-06-23T11:44:59.434Z,0.90
2018-06-23T11:47:29.931Z,0.70
2018-06-23T11:50:00.534Z,0.80
2018-06-23T11:52:33.613Z,0.80
2018-06-23T11:55:04.253Z,0.77
2018-06-23T11:57:37.718Z,0.87
2018-06-23T12:00:08.805Z,0.80
2018-06-23T12:02:39.529Z,0.90
2018-06-23T12:05:10.310Z,0.83
2018-06-23T12:07:40.800Z,0.83
2018-06-23T12:10:11.603Z,0.70
2018-06-23T12:12:41.903Z,0.90
2018-06-23T12:15:12.438Z,0.73
2018-06-23T12:17:42.750Z,0.60
2018-06-23T12:20:25.445Z,1.00
2018-06-23T12:22:56.066Z,0.90
2018-06-23T12:25:27.116Z,0.87
2018-06-23T12:27:57.271Z,1.20
2018-06-23T12:30:27.929Z,1.07
2018-06-23T12:32:58.273Z,1.10
